»·PEaware :: AMF5266 KBUR-KPHX

AMF5266 :: KBUR-KPHX

FLIGHT INFORMATION

Flight Status: Arrived
Operator: Ameriflight
More flights by this operator :: More flights under this callsign
Pilot: Dominic B. (18944)
Aircraft: EMBRAER BRASILIA
(E120)
More flights by this aircraft type
Origin: KBUR Bob Hope-Burbank
United States
Destination: KPHX Phoenix Sky Harbor Intl
United States
More flights between these airports :: More routes between these airports
Route: +ELMOO V186 ITSME V264 POM PDZ V186 NIKKL V64 BLH BLH5
File this flight plan on PilotEdge
Remarks: RMK / SIMBRIEF
Altitude:
(Current/Filed)
17,000ft
Speed:
(Current/Filed)
277kts
Departed: 17-Nov-20 06:37 PM
Arrived: 17-Nov-20 07:44 PM
Distance/Time
Traveled:
319nm/1:07
Distance/Time
To Go:
Arrived

Flight Plot

Page will automatically refresh every two minutes.

Flight plan parsing failed; only flown route is shown


Map Options




Map Legend


Flown Route
Filed Route
Departure Airport
Arrival Airport
Navaid (VOR, NDB)
Fix

Horizontal Profiles

Position Reports

Time Latitude Longitude Heading Altitude Ground
Speed
17-Nov-20 18:14 34.195871 -118.365304 67 725ft 0kts
17-Nov-20 18:15 34.195871 -118.365304 67 725ft 0kts
17-Nov-20 18:16 34.195871 -118.365304 67 725ft 0kts
17-Nov-20 18:17 34.195871 -118.365304 67 725ft 0kts
17-Nov-20 18:18 34.195871 -118.365304 67 725ft 0kts
17-Nov-20 18:19 34.195871 -118.365304 67 725ft 0kts
17-Nov-20 18:19 34.195871 -118.365304 67 725ft 0kts
17-Nov-20 18:21 34.195871 -118.365304 67 725ft 0kts
17-Nov-20 18:21 34.195871 -118.365304 67 725ft 0kts
17-Nov-20 18:22 34.195871 -118.365304 67 725ft 0kts
17-Nov-20 18:23 34.195871 -118.365304 67 725ft 0kts
17-Nov-20 18:24 34.195871 -118.365304 67 725ft 0kts
17-Nov-20 18:25 34.195871 -118.365304 67 725ft 0kts
17-Nov-20 18:26 34.195871 -118.365304 67 725ft 0kts
17-Nov-20 18:27 34.195871 -118.365304 67 725ft 0kts
17-Nov-20 18:28 34.195871 -118.365303 67 725ft 0kts
17-Nov-20 18:29 34.195871 -118.365303 67 725ft 0kts
17-Nov-20 18:30 34.195871 -118.365303 67 725ft 0kts
17-Nov-20 18:31 34.196059 -118.365208 5 725ft 1kts
17-Nov-20 18:32 34.196939 -118.366105 263 725ft 14kts
17-Nov-20 18:33 34.197062 -118.368902 321 725ft 0kts
17-Nov-20 18:34 34.197068 -118.368907 321 725ft 0kts
17-Nov-20 18:35 34.197889 -118.368354 90 725ft 10kts
17-Nov-20 18:36 34.194966 -118.328490 113 1667ft 191kts
17-Nov-20 18:37 34.169146 -118.275686 122 4495ft 179kts
17-Nov-20 18:38 34.148482 -118.224809 115 6921ft 185kts
17-Nov-20 18:39 34.128716 -118.164541 116 8926ft 215kts
17-Nov-20 18:40 34.103208 -118.087076 115 9004ft 273kts
17-Nov-20 18:41 34.073898 -117.998048 115 9004ft 295kts
17-Nov-20 18:42 34.043966 -117.907055 115 9003ft 286kts
17-Nov-20 18:43 34.016157 -117.823310 115 9011ft 280kts
17-Nov-20 18:44 33.988435 -117.739100 116 10495ft 231kts
17-Nov-20 18:45 33.966989 -117.673934 119 13027ft 209kts
17-Nov-20 18:46 33.944717 -117.607470 118 14765ft 218kts
17-Nov-20 18:47 33.921183 -117.538343 125 16329ft 224kts
17-Nov-20 18:48 33.871619 -117.491216 147 17014ft 259kts
17-Nov-20 18:49 33.849786 -117.399832 98 17009ft 311kts
17-Nov-20 18:50 33.840526 -117.293877 98 17010ft 323kts
17-Nov-20 18:51 33.831040 -117.185381 98 17015ft 328kts
17-Nov-20 18:52 33.821494 -117.076055 98 17001ft 330kts
17-Nov-20 18:53 33.812261 -116.971296 98 17002ft 330kts
17-Nov-20 18:54 33.802487 -116.861520 98 16995ft 330kts
17-Nov-20 18:55 33.792548 -116.751026 98 17008ft 330kts
17-Nov-20 18:56 33.782614 -116.641768 98 16987ft 330kts
17-Nov-20 18:57 33.772572 -116.532241 98 16998ft 330kts
17-Nov-20 18:58 33.762475 -116.422424 98 16995ft 330kts
17-Nov-20 18:59 33.752041 -116.312790 98 16991ft 330kts
17-Nov-20 19:00 33.741771 -116.203376 98 16972ft 330kts
17-Nov-20 19:01 33.731602 -116.093582 98 16999ft 329kts
17-Nov-20 19:02 33.721245 -115.984656 99 17003ft 331kts
17-Nov-20 19:03 33.710324 -115.874849 99 17005ft 335kts
17-Nov-20 19:04 33.699343 -115.763888 99 17001ft 336kts
17-Nov-20 19:05 33.688509 -115.652919 99 17001ft 334kts
17-Nov-20 19:06 33.677469 -115.542313 99 17002ft 334kts
17-Nov-20 19:07 33.665845 -115.431860 99 17000ft 333kts
17-Nov-20 19:08 33.654953 -115.322011 99 17001ft 330kts
17-Nov-20 19:09 33.643874 -115.212554 99 16998ft 330kts
17-Nov-20 19:10 33.632627 -115.103908 100 16990ft 329kts
17-Nov-20 19:11 33.621362 -114.994695 99 16999ft 330kts
17-Nov-20 19:12 33.609691 -114.885506 100 17003ft 329kts
17-Nov-20 19:13 33.597841 -114.776747 99 17000ft 328kts
17-Nov-20 19:14 33.587758 -114.667888 98 17000ft 329kts
17-Nov-20 19:15 33.578126 -114.558726 98 17000ft 329kts
17-Nov-20 19:16 33.568253 -114.449260 98 17006ft 332kts
17-Nov-20 19:17 33.558243 -114.339155 99 17001ft 331kts
17-Nov-20 19:18 33.548184 -114.229675 99 17002ft 330kts
17-Nov-20 19:19 33.538068 -114.120667 99 17001ft 329kts
17-Nov-20 19:20 33.527792 -114.011047 99 16999ft 329kts
17-Nov-20 19:21 33.516495 -113.901990 106 16996ft 330kts
17-Nov-20 19:22 33.477918 -113.804768 122 16997ft 322kts
17-Nov-20 19:23 33.435011 -113.710724 122 17001ft 322kts
17-Nov-20 19:24 33.391952 -113.616674 123 17000ft 321kts
17-Nov-20 19:25 33.348911 -113.522965 123 17000ft 321kts
17-Nov-20 19:26 33.305665 -113.429058 123 17000ft 321kts
17-Nov-20 19:27 33.268558 -113.332018 100 17001ft 329kts
17-Nov-20 19:28 33.270197 -113.221879 90 17001ft 332kts
17-Nov-20 19:29 33.273226 -113.111936 90 16997ft 332kts
17-Nov-20 19:30 33.276132 -112.999323 91 15299ft 337kts
17-Nov-20 19:31 33.278933 -112.888806 91 13598ft 327kts
17-Nov-20 19:32 33.281485 -112.781724 92 12114ft 310kts
17-Nov-20 19:33 33.289939 -112.686284 74 11695ft 286kts
17-Nov-20 19:34 33.318980 -112.594153 71 10100ft 302kts
17-Nov-20 19:35 33.349542 -112.500082 71 8511ft 303kts
17-Nov-20 19:36 33.379537 -112.406999 71 6991ft 292kts
17-Nov-20 19:37 33.404954 -112.327976 71 6072ft 258kts
17-Nov-20 19:38 33.429775 -112.252215 71 6001ft 233kts
17-Nov-20 19:39 33.430491 -112.178764 99 4510ft 201kts
17-Nov-20 19:40 33.428619 -112.119397 86 2612ft 155kts
17-Nov-20 19:41 33.429007 -112.074269 89 1906ft 130kts
17-Nov-20 19:42 33.428839 -112.034211 90 1280ft 112kts
17-Nov-20 19:43 33.428763 -112.011804 101 1139ft 24kts
17-Nov-20 19:44 33.427787 -112.011131 252 1139ft 0kts
17-Nov-20 19:45 33.427719 -112.014653 269 1139ft 12kts
17-Nov-20 19:46 33.426599 -112.017348 177 1139ft 4kts
17-Nov-20 19:47 33.425957 -112.016601 90 1139ft 0kts
17-Nov-20 19:48 33.425957 -112.016601 90 1139ft 0kts

Navigation Log

Ident Type
Flight plan parsing failed, navigation log unavailable